createdAt,value
2022-08-20T00:01:38.995Z,45.74
2022-08-20T00:04:06.271Z,46.03
2022-08-20T00:06:34.523Z,45.99
2022-08-20T00:09:01.664Z,46.44
2022-08-20T00:11:29.452Z,46.46
2022-08-20T00:13:59.969Z,46.75
2022-08-20T00:16:28.441Z,46.89
2022-08-20T00:18:55.683Z,46.75
2022-08-20T00:21:23.365Z,47.10
2022-08-20T00:23:54.937Z,46.70
2022-08-20T00:26:23.802Z,47.10
2022-08-20T00:28:51.742Z,47.64
2022-08-20T00:31:22.987Z,47.66
2022-08-20T00:33:50.253Z,47.53
2022-08-20T00:36:18.126Z,47.46
2022-08-20T00:38:47.145Z,47.76
2022-08-20T00:41:24.415Z,47.80
2022-08-20T00:44:11.708Z,48.18
2022-08-20T00:46:40.583Z,48.05
2022-08-20T00:49:12.576Z,48.10
2022-08-20T00:51:48.032Z,48.50
2022-08-20T00:54:22.936Z,48.65
2022-08-20T00:56:57.275Z,49.03
2022-08-20T00:59:28.706Z,48.89
2022-08-20T01:01:57.853Z,48.67
2022-08-20T01:04:27.716Z,49.08
2022-08-20T01:06:55.575Z,48.68
2022-08-20T01:09:49.446Z,48.94
2022-08-20T01:12:11.860Z,49.52
2022-08-20T01:14:39.215Z,49.77
2022-08-20T01:17:08.339Z,49.11
2022-08-20T01:19:41.849Z,49.19
2022-08-20T01:22:29.084Z,49.66
2022-08-20T01:25:05.152Z,49.88
2022-08-20T01:27:33.682Z,49.76
2022-08-20T01:30:10.272Z,50.05
2022-08-20T01:32:37.530Z,50.52
2022-08-20T01:35:05.782Z,50.78
2022-08-20T01:37:32.949Z,50.50
2022-08-20T01:40:00.915Z,50.72
2022-08-20T01:42:37.460Z,50.62
2022-08-20T01:45:21.297Z,50.29
2022-08-20T01:47:54.143Z,50.38
2022-08-20T01:50:27.830Z,50.41
2022-08-20T01:53:08.875Z,50.28
2022-08-20T01:55:38.244Z,50.51
2022-08-20T01:58:05.816Z,50.46
2022-08-20T02:00:35.659Z,50.67
2022-08-20T02:03:03.415Z,50.55
2022-08-20T02:05:32.678Z,50.62
2022-08-20T02:08:00.487Z,50.98
2022-08-20T02:10:31.590Z,50.81
2022-08-20T02:13:00.303Z,51.05
2022-08-20T02:15:47.518Z,51.25
2022-08-20T02:18:16.959Z,51.25
2022-08-20T02:20:45.215Z,50.91
2022-08-20T02:23:13.098Z,50.88
2022-08-20T02:25:42.294Z,51.26
2022-08-20T02:28:14.938Z,51.79
2022-08-20T02:30:47.844Z,52.30
2022-08-20T02:33:17.420Z,52.48
2022-08-20T02:35:48.393Z,52.71
2022-08-20T02:38:17.144Z,52.59
2022-08-20T02:40:45.990Z,52.43
2022-08-20T02:43:14.566Z,51.93
2022-08-20T02:45:43.940Z,52.14
2022-08-20T02:48:18.641Z,52.00
2022-08-20T02:50:45.800Z,51.87
2022-08-20T02:53:12.965Z,50.70
2022-08-20T02:55:40.163Z,50.64
2022-08-20T02:58:07.409Z,51.17
2022-08-20T03:00:38.379Z,52.08
2022-08-20T03:03:10.723Z,52.37
2022-08-20T03:05:41.100Z,52.10
2022-08-20T03:08:10.590Z,52.52
2022-08-20T03:10:39.449Z,52.79
2022-08-20T03:13:11.340Z,53.60
2022-08-20T03:15:42.278Z,52.93
2022-08-20T03:18:10.218Z,53.08
2022-08-20T03:20:37.860Z,54.10
2022-08-20T03:23:06.982Z,54.28
2022-08-20T03:25:34.559Z,53.93
2022-08-20T03:28:01.736Z,53.63
2022-08-20T03:30:30.491Z,53.74
2022-08-20T03:32:58.048Z,54.33
2022-08-20T03:35:28.087Z,54.14
2022-08-20T03:37:55.685Z,54.22
2022-08-20T03:40:27.437Z,53.68
2022-08-20T03:42:54.861Z,53.54
2022-08-20T03:45:23.222Z,54.43
2022-08-20T03:47:51.964Z,54.56
2022-08-20T03:50:23.527Z,55.06
2022-08-20T03:52:52.694Z,54.95
2022-08-20T03:55:21.578Z,54.98
2022-08-20T03:57:53.756Z,54.97
2022-08-20T04:00:27.015Z,54.50
2022-08-20T04:03:12.660Z,54.04
2022-08-20T04:05:41.232Z,54.62
2022-08-20T04:08:12.231Z,54.15
2022-08-20T04:10:39.913Z,53.90
2022-08-20T04:13:07.402Z,53.58
2022-08-20T04:15:37.144Z,53.97
2022-08-20T04:18:09.005Z,52.75
2022-08-20T04:20:38.274Z,52.47
2022-08-20T04:23:06.150Z,52.73
2022-08-20T04:25:35.803Z,52.54
2022-08-20T04:28:06.273Z,52.75
2022-08-20T04:30:33.884Z,52.56
2022-08-20T04:33:01.271Z,52.56
2022-08-20T04:35:29.978Z,52.34
2022-08-20T04:38:06.824Z,51.70
2022-08-20T04:40:53.621Z,52.26
2022-08-20T04:43:23.424Z,51.02
2022-08-20T04:45:52.095Z,50.82
2022-08-20T04:48:20.717Z,50.59
2022-08-20T04:50:47.881Z,50.79
2022-08-20T04:53:23.921Z,51.09
2022-08-20T04:55:55.228Z,51.29
2022-08-20T04:58:30.458Z,50.57
2022-08-20T05:01:01.194Z,50.53
2022-08-20T05:03:29.157Z,50.31
2022-08-20T05:05:57.022Z,50.41
2022-08-20T05:08:26.141Z,50.41
2022-08-20T05:11:06.624Z,49.62
2022-08-20T05:13:42.895Z,49.57
2022-08-20T05:16:10.075Z,49.38
2022-08-20T05:18:37.257Z,48.85
2022-08-20T05:21:07.592Z,48.30
2022-08-20T05:23:37.178Z,48.60
2022-08-20T05:26:09.251Z,48.33
2022-08-20T05:28:54.123Z,48.08
2022-08-20T05:31:31.224Z,47.90
2022-08-20T05:34:02.750Z,47.40
2022-08-20T05:36:29.999Z,47.91
2022-08-20T05:38:57.196Z,47.80
2022-08-20T05:41:28.672Z,47.77
2022-08-20T05:44:01.308Z,47.85
2022-08-20T05:46:31.479Z,47.40
2022-08-20T05:49:01.736Z,47.18
2022-08-20T05:51:30.220Z,47.35
2022-08-20T05:53:57.680Z,47.55
2022-08-20T05:56:30.563Z,47.33
2022-08-20T05:59:02.120Z,46.93
2022-08-20T06:01:29.565Z,47.45
2022-08-20T06:04:15.784Z,47.11
2022-08-20T06:06:45.666Z,45.95
2022-08-20T06:09:16.585Z,44.58
2022-08-20T06:11:59.679Z,43.90
2022-08-20T06:14:27.261Z,44.27
2022-08-20T06:16:57.821Z,44.06
2022-08-20T06:19:27.260Z,44.13
2022-08-20T06:22:00.507Z,43.94
2022-08-20T06:24:27.832Z,45.56
2022-08-20T06:27:00.139Z,45.17
2022-08-20T06:29:28.402Z,44.39
2022-08-20T06:31:56.332Z,43.80
2022-08-20T06:34:26.365Z,43.68
2022-08-20T06:36:53.521Z,43.08
2022-08-20T06:39:21.352Z,42.65
2022-08-20T06:41:48.590Z,42.77
2022-08-20T06:44:16.087Z,42.96
2022-08-20T06:46:43.480Z,43.25
2022-08-20T06:49:11.374Z,42.91
2022-08-20T06:51:40.113Z,43.16
2022-08-20T06:54:08.834Z,43.13
2022-08-20T06:56:36.144Z,42.95
2022-08-20T06:59:03.382Z,43.04
2022-08-20T07:01:30.519Z,41.75
2022-08-20T07:03:59.720Z,42.38
2022-08-20T07:06:27.630Z,42.18
2022-08-20T07:08:55.923Z,41.72
2022-08-20T07:11:27.771Z,41.63
2022-08-20T07:13:58.966Z,41.81
2022-08-20T07:16:26.571Z,41.34
2022-08-20T07:18:53.712Z,41.50
2022-08-20T07:21:20.914Z,41.83
2022-08-20T07:23:49.483Z,41.28
2022-08-20T07:26:17.547Z,41.18
2022-08-20T07:28:45.580Z,41.37
2022-08-20T07:31:31.583Z,40.75
2022-08-20T07:34:20.372Z,40.94
2022-08-20T07:36:48.894Z,40.89
2022-08-20T07:39:16.698Z,41.47
2022-08-20T07:41:56.416Z,40.52
2022-08-20T07:44:29.122Z,39.62
2022-08-20T07:46:59.689Z,39.93
2022-08-20T07:49:26.785Z,40.87
2022-08-20T07:51:53.917Z,40.01
2022-08-20T07:54:21.217Z,39.43
2022-08-20T07:56:49.620Z,39.14
2022-08-20T07:59:16.995Z,38.84
2022-08-20T08:01:44.133Z,39.19
2022-08-20T08:04:11.817Z,39.11
2022-08-20T08:06:39.808Z,38.01
2022-08-20T08:09:13.604Z,38.66
2022-08-20T08:11:47.462Z,38.97
2022-08-20T08:14:19.667Z,38.34
2022-08-20T08:16:47.389Z,38.34
2022-08-20T08:19:17.844Z,38.82
2022-08-20T08:21:44.929Z,38.72
2022-08-20T08:24:16.712Z,38.03
2022-08-20T08:26:50.134Z,37.62
2022-08-20T08:29:17.545Z,38.40
2022-08-20T08:31:44.940Z,38.14
2022-08-20T08:34:13.005Z,38.34
2022-08-20T08:36:40.753Z,38.43
2022-08-20T08:39:08.224Z,38.25
2022-08-20T08:41:40.990Z,37.92
2022-08-20T08:44:12.986Z,37.98
2022-08-20T08:46:44.584Z,37.92
2022-08-20T08:49:16.488Z,37.20
2022-08-20T08:51:50.370Z,37.72
2022-08-20T08:54:22.426Z,37.04
2022-08-20T08:56:51.227Z,36.96
2022-08-20T08:59:20.887Z,36.95
2022-08-20T09:01:53.707Z,36.95
2022-08-20T09:04:38.340Z,36.90
2022-08-20T09:07:11.033Z,37.02
2022-08-20T09:09:41.829Z,37.01
2022-08-20T09:12:15.300Z,36.85
2022-08-20T09:14:42.457Z,37.95
2022-08-20T09:17:09.833Z,37.36
2022-08-20T09:19:37.138Z,37.95
2022-08-20T09:22:10.156Z,38.47
2022-08-20T09:24:38.143Z,38.97
2022-08-20T09:27:05.657Z,39.54
2022-08-20T09:29:33.613Z,39.60
2022-08-20T09:32:27.176Z,40.38
2022-08-20T09:34:59.994Z,40.70
2022-08-20T09:37:33.664Z,41.30
2022-08-20T09:40:05.056Z,41.65
2022-08-20T09:42:38.798Z,42.30
2022-08-20T09:45:10.936Z,45.14
2022-08-20T09:47:39.226Z,43.82
2022-08-20T09:50:24.225Z,44.63
2022-08-20T09:52:53.831Z,46.19
2022-08-20T09:55:31.844Z,44.57
2022-08-20T09:58:00.907Z,44.28
2022-08-20T10:00:28.307Z,45.46
2022-08-20T10:02:55.584Z,44.77
2022-08-20T10:05:22.813Z,45.19
2022-08-20T10:07:49.987Z,45.26
2022-08-20T10:10:17.141Z,45.77
2022-08-20T10:12:46.021Z,46.06
2022-08-20T10:15:13.454Z,45.41
2022-08-20T10:17:42.782Z,46.49
2022-08-20T10:20:13.159Z,45.63
2022-08-20T10:22:40.824Z,46.31
2022-08-20T10:25:08.596Z,46.14
2022-08-20T10:27:35.890Z,47.57
2022-08-20T10:30:06.389Z,47.71
2022-08-20T10:32:33.666Z,49.54
2022-08-20T10:35:00.872Z,48.46
2022-08-20T10:37:28.091Z,49.74
2022-08-20T10:39:55.799Z,50.06
2022-08-20T10:42:23.219Z,48.51
2022-08-20T10:44:50.361Z,47.05
2022-08-20T10:47:35.447Z,47.26
2022-08-20T10:50:06.300Z,46.36
2022-08-20T10:52:33.627Z,47.56
2022-08-20T10:55:00.877Z,45.74
2022-08-20T10:57:30.894Z,46.19
2022-08-20T11:00:00.160Z,45.76
2022-08-20T11:02:28.720Z,45.17
2022-08-20T11:04:56.848Z,44.42
2022-08-20T11:07:50.431Z,45.94
2022-08-20T11:10:26.228Z,45.80
2022-08-20T11:12:53.808Z,44.45
2022-08-20T11:15:21.234Z,46.16
2022-08-20T11:17:48.404Z,45.27
2022-08-20T11:20:18.171Z,44.81
2022-08-20T11:22:45.638Z,44.86
2022-08-20T11:25:13.170Z,44.52
2022-08-20T11:27:44.377Z,44.51
2022-08-20T11:30:15.304Z,44.39
2022-08-20T11:32:42.471Z,44.68
2022-08-20T11:35:40.460Z,44.22
2022-08-20T11:37:59.226Z,43.51
2022-08-20T11:40:28.492Z,43.71
2022-08-20T11:45:47.465Z,43.58
2022-08-20T11:48:14.900Z,43.32
2022-08-20T11:50:42.048Z,43.18
2022-08-20T11:53:09.433Z,42.27
2022-08-20T11:55:37.516Z,42.48
2022-08-20T11:58:06.998Z,42.00
2022-08-20T12:00:36.904Z,41.55
2022-08-20T12:03:08.744Z,40.30
2022-08-20T12:05:38.581Z,40.19
2022-08-20T12:08:06.542Z,40.53
2022-08-20T12:10:34.196Z,40.26
2022-08-20T12:13:02.568Z,39.50
2022-08-20T12:15:30.837Z,39.38
2022-08-20T12:17:58.046Z,39.60
2022-08-20T12:20:25.670Z,39.50
2022-08-20T12:22:54.129Z,39.08
2022-08-20T12:25:21.413Z,39.17
2022-08-20T12:27:48.830Z,39.38
2022-08-20T12:30:19.980Z,39.22
2022-08-20T12:32:47.405Z,38.87
2022-08-20T12:35:16.749Z,38.48
2022-08-20T12:37:44.553Z,38.61
2022-08-20T12:40:16.390Z,38.19
2022-08-20T12:42:43.856Z,38.24
2022-08-20T12:45:12.093Z,37.43
2022-08-20T12:47:41.919Z,37.58
2022-08-20T12:50:15.158Z,37.18
2022-08-20T12:52:42.939Z,37.70
2022-08-20T12:55:11.867Z,37.38
2022-08-20T12:57:46.258Z,37.42
2022-08-20T13:00:36.271Z,36.78
2022-08-20T13:03:05.504Z,36.90
2022-08-20T13:05:34.373Z,37.31
2022-08-20T13:08:02.075Z,37.42
2022-08-20T13:10:32.362Z,37.49
2022-08-20T13:13:01.936Z,37.14
2022-08-20T13:15:30.504Z,37.44
2022-08-20T13:18:00.834Z,37.54
2022-08-20T13:20:34.002Z,37.24
2022-08-20T13:23:04.405Z,37.37
2022-08-20T13:25:32.423Z,37.61
2022-08-20T13:28:04.066Z,38.02
2022-08-20T13:30:32.861Z,38.08
2022-08-20T13:33:00.060Z,38.18
2022-08-20T13:35:27.280Z,38.45
2022-08-20T13:37:54.439Z,38.72
2022-08-20T13:40:21.860Z,39.11
2022-08-20T13:42:49.278Z,39.49
2022-08-20T13:45:16.546Z,39.38
2022-08-20T13:47:44.258Z,39.38
2022-08-20T13:50:17.931Z,39.49
2022-08-20T13:52:55.031Z,39.46
2022-08-20T13:55:25.758Z,40.35
2022-08-20T13:57:53.856Z,39.77
2022-08-20T14:00:30.913Z,40.24
2022-08-20T14:03:03.517Z,40.06
2022-08-20T14:05:31.107Z,40.23
2022-08-20T14:08:17.670Z,40.18
2022-08-20T14:10:47.209Z,39.91
2022-08-20T14:13:20.963Z,40.14
2022-08-20T14:15:48.585Z,40.44
2022-08-20T14:18:15.922Z,40.02
2022-08-20T14:20:45.475Z,40.09
2022-08-20T14:23:14.072Z,40.33
2022-08-20T14:25:44.546Z,40.24
2022-08-20T14:28:14.483Z,40.09
2022-08-20T14:30:46.709Z,40.13
2022-08-20T14:33:19.926Z,40.02
2022-08-20T14:35:47.142Z,40.08
2022-08-20T14:38:14.340Z,39.93
2022-08-20T14:40:41.612Z,39.76
2022-08-20T14:43:08.949Z,39.49
2022-08-20T14:45:36.076Z,39.53
2022-08-20T14:48:07.495Z,39.69
2022-08-20T14:50:35.924Z,39.43
2022-08-20T14:53:04.360Z,39.17
2022-08-20T14:55:35.995Z,39.32
2022-08-20T14:58:08.633Z,39.00
2022-08-20T15:00:36.578Z,38.97
2022-08-20T15:03:04.244Z,38.64
2022-08-20T15:05:31.574Z,38.43
2022-08-20T15:07:59.313Z,38.05
2022-08-20T15:10:30.099Z,37.91
2022-08-20T15:12:58.238Z,37.82
2022-08-20T15:15:25.936Z,38.07
2022-08-20T15:17:55.791Z,37.54
2022-08-20T15:20:26.776Z,37.50
2022-08-20T15:22:54.688Z,37.21
2022-08-20T15:25:24.571Z,37.18
2022-08-20T15:27:54.793Z,37.18
2022-08-20T15:30:25.851Z,36.97
2022-08-20T15:32:56.801Z,36.70
2022-08-20T15:35:25.933Z,36.58
2022-08-20T15:37:56.825Z,36.64
2022-08-20T15:40:28.264Z,36.60
2022-08-20T15:43:03.609Z,36.74
2022-08-20T15:45:32.467Z,36.53
2022-08-20T15:48:14.307Z,36.36
2022-08-20T15:50:47.810Z,36.71
2022-08-20T15:53:40.169Z,36.38
2022-08-20T15:56:42.429Z,36.54
2022-08-20T15:59:29.568Z,36.46
2022-08-20T16:02:19.808Z,36.26
2022-08-20T16:04:58.120Z,36.38
2022-08-20T16:07:42.261Z,36.56
2022-08-20T16:10:21.464Z,36.37
2022-08-20T16:12:54.747Z,36.41
2022-08-20T16:15:33.697Z,36.50
2022-08-20T16:18:30.748Z,36.71
2022-08-20T16:21:03.065Z,36.46
2022-08-20T16:23:38.295Z,36.84
2022-08-20T16:26:27.455Z,36.81
2022-08-20T16:29:20.090Z,36.70
2022-08-20T16:32:07.946Z,37.17
2022-08-20T16:34:51.543Z,37.08
2022-08-20T16:37:34.009Z,37.09
2022-08-20T16:40:28.540Z,37.27
2022-08-20T16:42:59.533Z,37.27
2022-08-20T16:45:28.955Z,37.19
2022-08-20T16:48:01.913Z,37.19
2022-08-20T16:50:38.585Z,37.65
2022-08-20T16:53:13.113Z,37.39
2022-08-20T16:55:42.246Z,37.59
2022-08-20T16:58:10.199Z,37.44
2022-08-20T17:00:45.378Z,37.50
2022-08-20T17:03:31.680Z,37.35
2022-08-20T17:06:17.829Z,37.73
2022-08-20T17:08:50.519Z,37.47
2022-08-20T17:11:35.142Z,37.42
2022-08-20T17:14:07.470Z,37.51
2022-08-20T17:16:53.433Z,37.74
2022-08-20T17:19:32.525Z,37.75
2022-08-20T17:22:15.033Z,37.62
2022-08-20T17:24:42.444Z,37.66
2022-08-20T17:27:17.274Z,37.37
2022-08-20T17:29:56.566Z,37.84
2022-08-20T17:32:29.570Z,37.59
2022-08-20T17:34:59.792Z,37.52
2022-08-20T17:37:34.423Z,37.89
2022-08-20T17:40:11.583Z,38.08
2022-08-20T17:42:47.233Z,37.79
2022-08-20T17:45:23.771Z,37.71
2022-08-20T17:47:52.038Z,37.58
2022-08-20T17:50:23.829Z,37.87
2022-08-20T17:52:58.534Z,37.82
2022-08-20T17:55:26.561Z,37.65
2022-08-20T17:58:00.943Z,37.85
2022-08-20T18:00:28.619Z,37.50
2022-08-20T18:03:12.074Z,37.73
2022-08-20T18:05:39.910Z,38.29
2022-08-20T18:08:34.661Z,37.71
2022-08-20T18:11:34.274Z,37.63
2022-08-20T18:14:26.151Z,37.39
2022-08-20T18:17:16.754Z,37.67
2022-08-20T18:19:52.892Z,37.65
2022-08-20T18:22:33.950Z,37.49
2022-08-20T18:25:09.985Z,37.42
2022-08-20T18:27:42.924Z,37.71
2022-08-20T18:30:28.306Z,37.50
2022-08-20T18:33:08.273Z,37.82
2022-08-20T18:35:45.560Z,37.78
2022-08-20T18:38:22.375Z,37.53
2022-08-20T18:40:53.227Z,37.86
2022-08-20T18:43:30.647Z,37.92
2022-08-20T18:46:14.698Z,38.00
2022-08-20T18:48:57.967Z,37.87
2022-08-20T18:51:41.454Z,37.82
2022-08-20T18:54:21.224Z,37.79
2022-08-20T18:56:48.488Z,37.96
2022-08-20T18:59:19.897Z,38.18
2022-08-20T19:01:49.402Z,38.51
2022-08-20T19:04:26.569Z,38.42
2022-08-20T19:07:01.811Z,38.18
2022-08-20T19:09:52.792Z,38.53
2022-08-20T19:12:58.641Z,38.39
2022-08-20T19:15:26.448Z,38.64
2022-08-20T19:18:05.730Z,38.40
2022-08-20T19:20:36.331Z,38.88
2022-08-20T19:23:15.775Z,38.60
2022-08-20T19:26:25.980Z,38.62
2022-08-20T19:29:02.212Z,38.79
2022-08-20T19:31:33.559Z,39.26
2022-08-20T19:34:19.496Z,38.80
2022-08-20T19:37:35.348Z,39.17
2022-08-20T19:40:21.101Z,39.12
2022-08-20T19:42:48.593Z,39.39
2022-08-20T19:45:22.779Z,39.11
2022-08-20T19:48:15.247Z,39.14
2022-08-20T19:50:50.647Z,39.39
2022-08-20T19:53:32.893Z,39.13
2022-08-20T19:56:04.356Z,39.60
2022-08-20T19:58:33.736Z,39.44
2022-08-20T20:01:02.953Z,39.28
2022-08-20T20:03:34.015Z,39.63
2022-08-20T20:06:17.039Z,39.28
2022-08-20T20:08:59.179Z,39.32
2022-08-20T20:11:51.721Z,39.25
2022-08-20T20:14:22.982Z,39.73
2022-08-20T20:16:51.722Z,39.77
2022-08-20T20:19:28.031Z,39.55
2022-08-20T20:22:27.572Z,39.44
2022-08-20T20:25:07.051Z,39.77
2022-08-20T20:27:36.570Z,39.96
2022-08-20T20:30:11.603Z,39.68
2022-08-20T20:32:46.858Z,39.86
2022-08-20T20:35:33.333Z,40.12
2022-08-20T20:38:14.954Z,39.88
2022-08-20T20:40:49.623Z,39.88
2022-08-20T20:43:30.799Z,40.18
2022-08-20T20:46:17.759Z,39.81
2022-08-20T20:48:53.888Z,40.06
2022-08-20T20:51:34.024Z,40.06
2022-08-20T20:54:04.015Z,39.92
2022-08-20T20:56:36.093Z,40.30
2022-08-20T20:59:06.773Z,40.22
2022-08-20T21:01:48.321Z,39.97
2022-08-20T21:04:25.009Z,40.30
2022-08-20T21:06:54.317Z,40.14
2022-08-20T21:09:23.570Z,40.24
2022-08-20T21:11:51.163Z,40.20
2022-08-20T21:14:18.882Z,40.17
2022-08-20T21:16:46.138Z,40.48
2022-08-20T21:19:13.963Z,40.57
2022-08-20T21:21:41.248Z,40.35
2022-08-20T21:24:08.948Z,40.58
2022-08-20T21:26:37.696Z,40.60
2022-08-20T21:29:10.047Z,40.46
2022-08-20T21:31:43.876Z,40.22
2022-08-20T21:34:13.757Z,40.35
2022-08-20T21:36:41.418Z,40.33
2022-08-20T21:39:09.033Z,40.30
2022-08-20T21:41:37.237Z,40.10
2022-08-20T21:44:13.994Z,40.44
2022-08-20T21:46:42.591Z,40.22
2022-08-20T21:49:09.880Z,40.18
2022-08-20T21:51:37.128Z,40.46
2022-08-20T21:54:04.267Z,40.48
2022-08-20T21:56:33.825Z,40.48
2022-08-20T21:59:02.203Z,40.30
2022-08-20T22:01:32.459Z,40.75
2022-08-20T22:03:59.823Z,40.68
2022-08-20T22:06:27.005Z,40.72
2022-08-20T22:08:54.308Z,40.61
2022-08-20T22:11:21.467Z,40.55
2022-08-20T22:13:48.579Z,40.87
2022-08-20T22:16:19.708Z,40.78
2022-08-20T22:18:48.569Z,40.92
2022-08-20T22:21:19.784Z,41.06
2022-08-20T22:23:47.204Z,41.11
2022-08-20T22:26:15.259Z,41.06
2022-08-20T22:28:42.857Z,41.16
2022-08-20T22:31:11.069Z,40.98
2022-08-20T22:33:38.797Z,40.98
2022-08-20T22:36:07.027Z,40.93
2022-08-20T22:38:34.156Z,40.92
2022-08-20T22:41:02.190Z,41.09
2022-08-20T22:43:31.313Z,41.08
2022-08-20T22:46:01.078Z,41.49
2022-08-20T22:48:29.119Z,41.22
2022-08-20T22:50:57.748Z,41.22
2022-08-20T22:53:26.782Z,41.10
2022-08-20T22:55:54.781Z,41.20
2022-08-20T22:58:30.933Z,41.37
2022-08-20T23:01:02.323Z,41.67
2022-08-20T23:03:40.234Z,41.65
2022-08-20T23:06:09.600Z,41.62
2022-08-20T23:08:37.990Z,42.05
2022-08-20T23:11:05.338Z,42.31
2022-08-20T23:13:32.487Z,42.30
2022-08-20T23:15:59.802Z,42.41
2022-08-20T23:18:26.981Z,42.45
2022-08-20T23:20:57.235Z,42.71
2022-08-20T23:23:25.480Z,42.89
2022-08-20T23:25:53.831Z,42.78
2022-08-20T23:28:22.998Z,42.92
2022-08-20T23:30:50.953Z,43.03
2022-08-20T23:33:18.416Z,43.16
2022-08-20T23:35:47.007Z,43.34
2022-08-20T23:38:14.782Z,43.46
2022-08-20T23:40:42.332Z,43.27
2022-08-20T23:43:09.808Z,43.54
2022-08-20T23:45:39.889Z,43.28
2022-08-20T23:48:08.017Z,43.34
2022-08-20T23:50:35.924Z,43.48
2022-08-20T23:53:04.325Z,43.47
2022-08-20T23:55:32.137Z,43.34
2022-08-20T23:57:59.700Z,43.68
